| time (UTC) | temp F | wind direction | speed knots | gust knots | rain 1hr in | rain 24hr in | rain mn in | humidity % | barometer mb |
| 20260505064509 | 54 | 58 | 0.0 | 0.0 | 0.00 | 0.00 | 0.00 | 86 | 1012.9 |
| 20260505063029 | 54 | 58 | 0.0 | 0.0 | 0.00 | 0.00 | 0.00 | 85 | 1012.6 |
| 20260505061604 | 55 | 58 | 0.0 | 0.0 | 0.00 | 0.00 | 0.00 | 84 | 1012.4 |
| 20260505060057 | 55 | 58 | 0.0 | 0.0 | 0.00 | 0.00 | 0.00 | 83 | 1012.4 |
| 20260505054603 | 57 | 58 | 0.0 | 0.0 | 0.00 | 0.00 | 0.00 | 80 | 1012.2 |
| 20260505053016 | 58 | 58 | 0.0 | 0.0 | 0.00 | 0.00 | 0.00 | 78 | 1012.2 |
| 20260505051605 | 59 | 58 | 0.0 | 0.0 | 0.00 | 0.00 | 0.00 | 76 | 1012.1 |
| 20260505041528 | 63 | 73 | 1.7 | 3.5 | 0.00 | 0.00 | 0.00 | 69 | 1011.4 |
| 20260505040033 | 64 | 84 | 0.0 | 4.3 | 0.00 | 0.00 | 0.00 | 66 | 1011.4 |
| 20260505034538 | 66 | 68 | 0.0 | 3.5 | 0.00 | 0.00 | 0.00 | 64 | 1011.1 |
| 20260505033045 | 67 | 63 | 0.0 | 0.9 | 0.00 | 0.00 | 0.00 | 62 | 1011.0 |
| 20260505031558 | 68 | 80 | 0.0 | 0.0 | 0.00 | 0.00 | 0.00 | 60 | 1010.8 |
| 20260505030103 | 70 | 36 | 0.0 | 1.7 | 0.00 | 0.00 | 0.00 | 58 | 1010.5 |
| 20260505024509 | 71 | 196 | 0.0 | 3.5 | 0.00 | 0.00 | 0.00 | 57 | 1010.3 |
| 20260505023011 | 72 | 80 | 0.0 | 4.3 | 0.00 | 0.00 | 0.00 | 55 | 1010.2 |
| 20260505021527 | 73 | 84 | 0.0 | 3.5 | 0.00 | 0.00 | 0.00 | 54 | 1010.2 |
| 20260505020035 | 74 | 163 | 0.0 | 0.0 | 0.00 | 0.00 | 0.00 | 53 | 1010.2 |
| 20260505014541 | 74 | 162 | 0.0 | 0.0 | 0.00 | 0.00 | 0.00 | 53 | 1010.1 |
| 20260505013057 | 75 | 160 | 0.0 | 0.9 | 0.00 | 0.00 | 0.00 | 51 | 1010.1 |
| 20260505011553 | 76 | 160 | 0.0 | 0.0 | 0.00 | 0.00 | 0.00 | 50 | 1010.2 |
| 20260505010113 | 77 | 159 | 0.0 | 0.9 | 0.00 | 0.00 | 0.00 | 47 | 1010.2 |
| 20260505004509 | 77 | 135 | 0.0 | 0.9 | 0.00 | 0.00 | 0.00 | 46 | 1010.0 |
| 20260505003021 | 78 | 134 | 0.0 | 0.9 | 0.00 | 0.00 | 0.00 | 45 | 1010.2 |
| 20260505001525 | 78 | 188 | 0.0 | 0.9 | 0.00 | 0.00 | 0.00 | 45 | 1010.1 |
| 20260505000038 | 79 | 131 | 0.0 | 0.9 | 0.00 | 0.00 | 0.00 | 45 | 1010.1 |
| 20260504234541 | 78 | 217 | 0.0 | 0.9 | 0.00 | 0.00 | 0.00 | 45 | 1010.2 |
| 20260504233102 | 79 | 163 | 0.0 | 1.7 | 0.00 | 0.00 | 0.00 | 43 | 1010.2 |
| 20260504231551 | 80 | 115 | 0.9 | 3.5 | 0.00 | 0.00 | 0.00 | 44 | 1010.3 |
| 20260504230059 | 80 | 205 | 0.9 | 3.5 | 0.00 | 0.00 | 0.00 | 43 | 1010.4 |
| 20260504224511 | 81 | 134 | 0.0 | 1.7 | 0.00 | 0.00 | 0.00 | 43 | 1010.5 |
| 20260504223005 | 79 | 187 | 0.0 | 4.3 | 0.00 | 0.00 | 0.00 | 42 | 1010.6 |
| 20260504221511 | 81 | 177 | 0.0 | 1.7 | 0.00 | 0.00 | 0.00 | 38 | 1010.7 |
| 20260504220025 | 81 | 187 | 0.0 | 0.9 | 0.00 | 0.00 | 0.00 | 38 | 1010.8 |
| 20260504214533 | 81 | 184 | 0.0 | 0.9 | 0.00 | 0.00 | 0.00 | 37 | 1010.8 |
| 20260504213033 | 80 | 153 | 0.0 | 2.6 | 0.00 | 0.00 | 0.00 | 37 | 1010.9 |
| 20260504211540 | 80 | 150 | 0.0 | 0.9 | 0.00 | 0.00 | 0.00 | 39 | 1011.0 |
| 20260504210104 | 78 | 86 | 0.0 | 2.6 | 0.00 | 0.00 | 0.00 | 40 | 1011.1 |
| 20260504204602 | 78 | 137 | 0.0 | 2.6 | 0.00 | 0.00 | 0.00 | 41 | 1011.1 |
| 20260504203110 | 79 | 95 | 0.0 | 1.7 | 0.00 | 0.00 | 0.00 | 41 | 1011.3 |
| 20260504201559 | 78 | 200 | 0.0 | 0.9 | 0.00 | 0.00 | 0.00 | 39 | 1011.2 |
| 20260504200003 | 78 | 187 | 0.0 | 1.7 | 0.00 | 0.00 | 0.00 | 40 | 1011.4 |
| 20260504194519 | 78 | 172 | 0.0 | 2.6 | 0.00 | 0.00 | 0.00 | 42 | 1011.5 |
| 20260504193030 | 77 | 46 | 0.9 | 4.3 | 0.00 | 0.00 | 0.00 | 44 | 1011.4 |
| 20260504191535 | 76 | 155 | 0.0 | 2.6 | 0.00 | 0.00 | 0.00 | 44 | 1011.5 |
| 20260504190101 | 75 | 118 | 0.0 | 0.9 | 0.00 | 0.00 | 0.00 | 46 | 1011.7 |
| 20260504184544 | 74 | 59 | 0.0 | 3.5 | 0.00 | 0.00 | 0.00 | 46 | 1011.9 |
| 20260504183057 | 73 | 34 | 0.0 | 3.5 | 0.00 | 0.00 | 0.00 | 47 | 1011.9 |
| 20260504181604 | 72 | 72 | 0.9 | 6.1 | 0.00 | 0.00 | 0.00 | 48 | 1011.9 |
| 20260504180011 | 71 | 46 | 0.0 | 6.1 | 0.00 | 0.00 | 0.00 | 48 | 1012.0 |
| 20260504174536 | 70 | 110 | 0.0 | 4.3 | 0.00 | 0.00 | 0.00 | 51 | 1011.9 |
| 20260504173102 | 69 | 50 | 1.7 | 5.2 | 0.00 | 0.00 | 0.00 | 49 | 1012.0 |
| 20260504171519 | 68 | 72 | 0.9 | 3.5 | 0.00 | 0.00 | 0.00 | 51 | 1012.0 |
| 20260504150103 | 60 | 107 | 0.0 | 0.0 | 0.00 | 0.00 | 0.00 | 66 | 1011.2 |
| 20260504081516 | 54 | 105 | 0.0 | 0.0 | 0.00 | 0.00 | 0.00 | 82 | 1010.3 |